sensor_id;sensor_type;location;lat;lon;timestamp;temperature;humidity
21149;DHT22;10732;51.472;6.466;2023-02-18T00:01:23;11.00;99.90
21149;DHT22;10732;51.472;6.466;2023-02-18T00:03:49;11.00;99.90
21149;DHT22;10732;51.472;6.466;2023-02-18T00:06:23;11.00;99.90
21149;DHT22;10732;51.472;6.466;2023-02-18T00:08:50;11.00;99.90
21149;DHT22;10732;51.472;6.466;2023-02-18T00:11:17;11.00;99.90
21149;DHT22;10732;51.472;6.466;2023-02-18T00:13:42;11.00;99.90
21149;DHT22;10732;51.472;6.466;2023-02-18T00:16:10;11.00;99.90
21149;DHT22;10732;51.472;6.466;2023-02-18T00:18:37;11.00;99.90
21149;DHT22;10732;51.472;6.466;2023-02-18T00:21:04;11.00;99.90
21149;DHT22;10732;51.472;6.466;2023-02-18T00:23:29;11.00;99.90
21149;DHT22;10732;51.472;6.466;2023-02-18T00:26:03;11.00;99.90
21149;DHT22;10732;51.472;6.466;2023-02-18T00:28:30;11.00;99.90
21149;DHT22;10732;51.472;6.466;2023-02-18T00:30:55;11.00;99.90
21149;DHT22;10732;51.472;6.466;2023-02-18T00:33:21;11.00;99.90
21149;DHT22;10732;51.472;6.466;2023-02-18T00:35:47;11.00;99.90
21149;DHT22;10732;51.472;6.466;2023-02-18T00:38:12;11.00;99.90
21149;DHT22;10732;51.472;6.466;2023-02-18T00:40:39;11.00;99.90
21149;DHT22;10732;51.472;6.466;2023-02-18T00:43:06;11.00;99.90
21149;DHT22;10732;51.472;6.466;2023-02-18T00:45:32;11.00;99.90
21149;DHT22;10732;51.472;6.466;2023-02-18T00:47:57;10.90;99.90
21149;DHT22;10732;51.472;6.466;2023-02-18T00:50:23;11.00;99.90
21149;DHT22;10732;51.472;6.466;2023-02-18T00:52:48;10.90;99.90
21149;DHT22;10732;51.472;6.466;2023-02-18T00:55:14;10.90;99.90
21149;DHT22;10732;51.472;6.466;2023-02-18T00:57:39;10.90;99.90
21149;DHT22;10732;51.472;6.466;2023-02-18T01:00:06;10.90;99.90
21149;DHT22;10732;51.472;6.466;2023-02-18T01:02:32;10.90;99.90
21149;DHT22;10732;51.472;6.466;2023-02-18T01:04:58;10.90;99.90
21149;DHT22;10732;51.472;6.466;2023-02-18T01:07:23;11.00;99.90
21149;DHT22;10732;51.472;6.466;2023-02-18T01:09:49;11.00;99.90
21149;DHT22;10732;51.472;6.466;2023-02-18T01:12:14;11.00;99.90
21149;DHT22;10732;51.472;6.466;2023-02-18T01:14:40;11.00;99.90
21149;DHT22;10732;51.472;6.466;2023-02-18T01:17:06;10.90;99.90
21149;DHT22;10732;51.472;6.466;2023-02-18T01:19:31;10.90;99.90
21149;DHT22;10732;51.472;6.466;2023-02-18T01:21:57;10.90;99.90
21149;DHT22;10732;51.472;6.466;2023-02-18T01:24:22;10.90;99.90
21149;DHT22;10732;51.472;6.466;2023-02-18T01:26:48;10.90;99.90
21149;DHT22;10732;51.472;6.466;2023-02-18T01:29:13;10.90;99.90
21149;DHT22;10732;51.472;6.466;2023-02-18T01:31:39;10.90;99.90
21149;DHT22;10732;51.472;6.466;2023-02-18T01:34:04;10.90;99.90
21149;DHT22;10732;51.472;6.466;2023-02-18T01:36:30;10.90;99.90
21149;DHT22;10732;51.472;6.466;2023-02-18T01:38:56;10.90;99.90
21149;DHT22;10732;51.472;6.466;2023-02-18T01:41:21;10.80;99.90
21149;DHT22;10732;51.472;6.466;2023-02-18T01:43:47;10.80;99.90
21149;DHT22;10732;51.472;6.466;2023-02-18T01:46:19;10.80;99.90
21149;DHT22;10732;51.472;6.466;2023-02-18T01:48:52;10.80;99.90
21149;DHT22;10732;51.472;6.466;2023-02-18T01:51:28;10.70;99.90
21149;DHT22;10732;51.472;6.466;2023-02-18T01:53:58;10.80;99.90
21149;DHT22;10732;51.472;6.466;2023-02-18T01:56:34;10.80;99.90
21149;DHT22;10732;51.472;6.466;2023-02-18T01:59:05;10.80;99.90
21149;DHT22;10732;51.472;6.466;2023-02-18T02:01:31;10.70;99.90
21149;DHT22;10732;51.472;6.466;2023-02-18T02:03:57;10.80;99.90
21149;DHT22;10732;51.472;6.466;2023-02-18T02:06:24;10.70;99.90
21149;DHT22;10732;51.472;6.466;2023-02-18T02:08:54;10.70;99.90
21149;DHT22;10732;51.472;6.466;2023-02-18T02:14:12;10.70;99.90
21149;DHT22;10732;51.472;6.466;2023-02-18T02:17:05;10.70;99.90
21149;DHT22;10732;51.472;6.466;2023-02-18T02:36:40;10.60;99.90
21149;DHT22;10732;51.472;6.466;2023-02-18T02:42:12;10.50;99.90
21149;DHT22;10732;51.472;6.466;2023-02-18T02:45:37;10.50;99.90
21149;DHT22;10732;51.472;6.466;2023-02-18T02:47:44;10.50;99.90
21149;DHT22;10732;51.472;6.466;2023-02-18T02:53:05;10.50;99.90
21149;DHT22;10732;51.472;6.466;2023-02-18T02:55:33;10.40;99.90
21149;DHT22;10732;51.472;6.466;2023-02-18T02:57:59;10.40;99.90
21149;DHT22;10732;51.472;6.466;2023-02-18T03:00:43;10.40;99.90
21149;DHT22;10732;51.472;6.466;2023-02-18T03:09:16;10.30;99.90
21149;DHT22;10732;51.472;6.466;2023-02-18T03:12:00;10.30;99.90
21149;DHT22;10732;51.472;6.466;2023-02-18T03:17:54;10.30;99.90
21149;DHT22;10732;51.472;6.466;2023-02-18T03:20:29;10.30;99.90
21149;DHT22;10732;51.472;6.466;2023-02-18T03:22:57;10.30;99.90
21149;DHT22;10732;51.472;6.466;2023-02-18T03:25:25;10.30;99.90
21149;DHT22;10732;51.472;6.466;2023-02-18T03:28:21;10.30;99.90
21149;DHT22;10732;51.472;6.466;2023-02-18T03:30:52;10.30;99.90
21149;DHT22;10732;51.472;6.466;2023-02-18T03:33:32;10.30;99.90
21149;DHT22;10732;51.472;6.466;2023-02-18T03:35:59;10.30;99.90
21149;DHT22;10732;51.472;6.466;2023-02-18T03:38:34;10.30;99.90
21149;DHT22;10732;51.472;6.466;2023-02-18T03:41:03;10.30;99.90
21149;DHT22;10732;51.472;6.466;2023-02-18T03:43:29;10.30;99.90
21149;DHT22;10732;51.472;6.466;2023-02-18T03:45:54;10.30;99.90
21149;DHT22;10732;51.472;6.466;2023-02-18T03:48:20;10.30;99.90
21149;DHT22;10732;51.472;6.466;2023-02-18T03:50:45;10.30;99.90
21149;DHT22;10732;51.472;6.466;2023-02-18T03:53:11;10.30;99.90
21149;DHT22;10732;51.472;6.466;2023-02-18T03:55:36;10.30;99.90
21149;DHT22;10732;51.472;6.466;2023-02-18T03:58:02;10.30;99.90
21149;DHT22;10732;51.472;6.466;2023-02-18T04:00:28;10.30;99.90
21149;DHT22;10732;51.472;6.466;2023-02-18T04:02:53;10.30;99.90
21149;DHT22;10732;51.472;6.466;2023-02-18T04:05:19;10.40;99.90
21149;DHT22;10732;51.472;6.466;2023-02-18T04:07:44;10.30;99.90
21149;DHT22;10732;51.472;6.466;2023-02-18T04:10:10;10.30;99.90
21149;DHT22;10732;51.472;6.466;2023-02-18T04:12:35;10.30;99.90
21149;DHT22;10732;51.472;6.466;2023-02-18T04:15:01;10.30;99.90
21149;DHT22;10732;51.472;6.466;2023-02-18T04:17:27;10.30;99.90
21149;DHT22;10732;51.472;6.466;2023-02-18T04:19:52;10.30;99.90
21149;DHT22;10732;51.472;6.466;2023-02-18T04:22:18;10.30;99.90
21149;DHT22;10732;51.472;6.466;2023-02-18T04:24:43;10.30;99.90
21149;DHT22;10732;51.472;6.466;2023-02-18T04:27:09;10.30;99.90
21149;DHT22;10732;51.472;6.466;2023-02-18T04:29:34;10.30;99.90
21149;DHT22;10732;51.472;6.466;2023-02-18T04:32:00;10.20;99.90
21149;DHT22;10732;51.472;6.466;2023-02-18T04:34:25;10.20;99.90
21149;DHT22;10732;51.472;6.466;2023-02-18T04:36:51;10.20;99.90
21149;DHT22;10732;51.472;6.466;2023-02-18T04:39:16;10.20;99.90
21149;DHT22;10732;51.472;6.466;2023-02-18T04:41:42;10.10;99.90
21149;DHT22;10732;51.472;6.466;2023-02-18T04:44:07;10.10;99.90
21149;DHT22;10732;51.472;6.466;2023-02-18T04:46:33;10.10;99.90
21149;DHT22;10732;51.472;6.466;2023-02-18T04:48:58;10.10;99.90
21149;DHT22;10732;51.472;6.466;2023-02-18T04:51:24;10.10;99.90
21149;DHT22;10732;51.472;6.466;2023-02-18T04:53:49;10.00;99.90
21149;DHT22;10732;51.472;6.466;2023-02-18T04:56:15;10.10;99.90
21149;DHT22;10732;51.472;6.466;2023-02-18T04:58:40;10.00;99.90
21149;DHT22;10732;51.472;6.466;2023-02-18T05:01:06;10.00;99.90
21149;DHT22;10732;51.472;6.466;2023-02-18T05:03:32;10.00;99.90
21149;DHT22;10732;51.472;6.466;2023-02-18T05:05:57;10.00;99.90
21149;DHT22;10732;51.472;6.466;2023-02-18T05:08:23;10.00;99.90
21149;DHT22;10732;51.472;6.466;2023-02-18T05:10:49;10.00;99.90
21149;DHT22;10732;51.472;6.466;2023-02-18T05:13:15;10.00;99.90
21149;DHT22;10732;51.472;6.466;2023-02-18T05:15:41;10.00;99.90
21149;DHT22;10732;51.472;6.466;2023-02-18T05:18:06;10.00;99.90
21149;DHT22;10732;51.472;6.466;2023-02-18T05:20:32;10.00;99.90
21149;DHT22;10732;51.472;6.466;2023-02-18T05:22:58;10.10;99.90
21149;DHT22;10732;51.472;6.466;2023-02-18T05:25:24;10.00;99.90
21149;DHT22;10732;51.472;6.466;2023-02-18T05:27:49;10.10;99.90
21149;DHT22;10732;51.472;6.466;2023-02-18T05:30:15;10.10;99.90
21149;DHT22;10732;51.472;6.466;2023-02-18T05:32:40;10.10;99.90
21149;DHT22;10732;51.472;6.466;2023-02-18T05:35:06;10.10;99.90
21149;DHT22;10732;51.472;6.466;2023-02-18T05:37:32;10.10;99.90
21149;DHT22;10732;51.472;6.466;2023-02-18T05:39:57;10.00;99.90
21149;DHT22;10732;51.472;6.466;2023-02-18T05:42:23;10.10;99.90
21149;DHT22;10732;51.472;6.466;2023-02-18T05:44:48;10.00;99.90
21149;DHT22;10732;51.472;6.466;2023-02-18T05:47:14;10.00;99.90
21149;DHT22;10732;51.472;6.466;2023-02-18T05:49:41;10.00;99.90
21149;DHT22;10732;51.472;6.466;2023-02-18T05:52:08;10.00;99.90
21149;DHT22;10732;51.472;6.466;2023-02-18T05:54:34;10.00;99.90
21149;DHT22;10732;51.472;6.466;2023-02-18T05:57:00;10.00;99.90
21149;DHT22;10732;51.472;6.466;2023-02-18T05:59:26;10.10;99.90
21149;DHT22;10732;51.472;6.466;2023-02-18T06:01:52;10.10;99.90
21149;DHT22;10732;51.472;6.466;2023-02-18T06:04:18;10.00;99.90
21149;DHT22;10732;51.472;6.466;2023-02-18T06:06:43;10.00;99.90
21149;DHT22;10732;51.472;6.466;2023-02-18T06:09:09;10.00;99.90
21149;DHT22;10732;51.472;6.466;2023-02-18T06:11:35;10.00;99.90
21149;DHT22;10732;51.472;6.466;2023-02-18T06:14:01;10.00;99.90
21149;DHT22;10732;51.472;6.466;2023-02-18T06:16:26;10.00;99.90
21149;DHT22;10732;51.472;6.466;2023-02-18T06:18:52;10.00;99.90
21149;DHT22;10732;51.472;6.466;2023-02-18T06:21:18;10.00;99.90
21149;DHT22;10732;51.472;6.466;2023-02-18T06:23:43;10.00;99.90
21149;DHT22;10732;51.472;6.466;2023-02-18T06:26:09;10.00;99.90
21149;DHT22;10732;51.472;6.466;2023-02-18T06:28:34;9.90;99.90
21149;DHT22;10732;51.472;6.466;2023-02-18T06:31:00;9.90;99.90
21149;DHT22;10732;51.472;6.466;2023-02-18T06:33:25;9.90;99.90
21149;DHT22;10732;51.472;6.466;2023-02-18T06:35:56;9.90;99.90
21149;DHT22;10732;51.472;6.466;2023-02-18T06:38:22;9.90;99.90
21149;DHT22;10732;51.472;6.466;2023-02-18T06:40:47;9.90;99.90
21149;DHT22;10732;51.472;6.466;2023-02-18T06:43:13;9.90;99.90
21149;DHT22;10732;51.472;6.466;2023-02-18T06:45:38;9.90;99.90
21149;DHT22;10732;51.472;6.466;2023-02-18T06:48:04;9.90;99.90
21149;DHT22;10732;51.472;6.466;2023-02-18T06:50:30;9.80;99.90
21149;DHT22;10732;51.472;6.466;2023-02-18T06:52:55;9.90;99.90
21149;DHT22;10732;51.472;6.466;2023-02-18T06:55:21;9.80;99.90
21149;DHT22;10732;51.472;6.466;2023-02-18T06:57:46;9.80;99.90
21149;DHT22;10732;51.472;6.466;2023-02-18T07:00:13;9.80;99.90
21149;DHT22;10732;51.472;6.466;2023-02-18T07:02:38;9.90;99.90
21149;DHT22;10732;51.472;6.466;2023-02-18T07:05:04;9.80;99.90
21149;DHT22;10732;51.472;6.466;2023-02-18T07:07:30;9.80;99.90
21149;DHT22;10732;51.472;6.466;2023-02-18T07:09:55;9.80;99.90
21149;DHT22;10732;51.472;6.466;2023-02-18T07:12:21;9.80;99.90
21149;DHT22;10732;51.472;6.466;2023-02-18T07:14:47;9.80;99.90
21149;DHT22;10732;51.472;6.466;2023-02-18T07:17:12;9.90;99.90
21149;DHT22;10732;51.472;6.466;2023-02-18T07:19:38;10.00;99.90
21149;DHT22;10732;51.472;6.466;2023-02-18T07:22:03;10.10;99.90
21149;DHT22;10732;51.472;6.466;2023-02-18T07:24:29;10.00;99.90
21149;DHT22;10732;51.472;6.466;2023-02-18T07:26:54;10.00;99.90
21149;DHT22;10732;51.472;6.466;2023-02-18T07:29:20;10.10;99.90
21149;DHT22;10732;51.472;6.466;2023-02-18T07:31:46;10.10;99.90
21149;DHT22;10732;51.472;6.466;2023-02-18T07:34:11;10.10;99.90
21149;DHT22;10732;51.472;6.466;2023-02-18T07:36:37;10.10;99.90
21149;DHT22;10732;51.472;6.466;2023-02-18T07:39:03;10.20;99.90
21149;DHT22;10732;51.472;6.466;2023-02-18T07:41:28;10.30;99.90
21149;DHT22;10732;51.472;6.466;2023-02-18T07:43:54;10.40;99.90
21149;DHT22;10732;51.472;6.466;2023-02-18T07:46:20;10.30;99.90
21149;DHT22;10732;51.472;6.466;2023-02-18T07:48:45;10.30;99.90
21149;DHT22;10732;51.472;6.466;2023-02-18T07:51:11;10.20;99.90
21149;DHT22;10732;51.472;6.466;2023-02-18T07:53:38;10.20;99.90
21149;DHT22;10732;51.472;6.466;2023-02-18T07:56:04;10.20;99.90
21149;DHT22;10732;51.472;6.466;2023-02-18T07:58:32;10.20;99.90
21149;DHT22;10732;51.472;6.466;2023-02-18T08:00:59;10.20;99.90
21149;DHT22;10732;51.472;6.466;2023-02-18T08:03:29;10.10;99.90
21149;DHT22;10732;51.472;6.466;2023-02-18T08:05:59;10.10;99.90
21149;DHT22;10732;51.472;6.466;2023-02-18T08:08:26;10.10;99.90
21149;DHT22;10732;51.472;6.466;2023-02-18T08:10:55;10.10;99.90
21149;DHT22;10732;51.472;6.466;2023-02-18T08:13:21;10.20;99.90
21149;DHT22;10732;51.472;6.466;2023-02-18T08:15:47;10.20;99.90
21149;DHT22;10732;51.472;6.466;2023-02-18T08:18:20;10.30;99.90
21149;DHT22;10732;51.472;6.466;2023-02-18T08:20:46;10.40;99.90
21149;DHT22;10732;51.472;6.466;2023-02-18T08:23:14;10.40;99.90
21149;DHT22;10732;51.472;6.466;2023-02-18T08:25:40;10.30;99.90
21149;DHT22;10732;51.472;6.466;2023-02-18T08:28:09;10.20;99.90
21149;DHT22;10732;51.472;6.466;2023-02-18T08:30:34;10.10;99.90
21149;DHT22;10732;51.472;6.466;2023-02-18T08:33:00;10.10;99.90
21149;DHT22;10732;51.472;6.466;2023-02-18T08:35:25;10.10;99.90
21149;DHT22;10732;51.472;6.466;2023-02-18T08:37:51;10.00;99.90
21149;DHT22;10732;51.472;6.466;2023-02-18T08:40:17;9.90;99.90
21149;DHT22;10732;51.472;6.466;2023-02-18T08:42:42;9.90;99.90
21149;DHT22;10732;51.472;6.466;2023-02-18T08:45:08;9.80;99.90
21149;DHT22;10732;51.472;6.466;2023-02-18T08:47:33;9.80;99.90
21149;DHT22;10732;51.472;6.466;2023-02-18T08:50:00;9.80;99.90
21149;DHT22;10732;51.472;6.466;2023-02-18T08:52:26;9.80;99.90
21149;DHT22;10732;51.472;6.466;2023-02-18T08:54:51;9.80;99.90
21149;DHT22;10732;51.472;6.466;2023-02-18T08:57:17;9.80;99.90
21149;DHT22;10732;51.472;6.466;2023-02-18T08:59:42;9.80;99.90
21149;DHT22;10732;51.472;6.466;2023-02-18T09:02:12;9.90;99.90
21149;DHT22;10732;51.472;6.466;2023-02-18T09:04:37;9.90;99.90
21149;DHT22;10732;51.472;6.466;2023-02-18T09:07:03;9.90;99.90
21149;DHT22;10732;51.472;6.466;2023-02-18T09:09:28;9.80;99.90
21149;DHT22;10732;51.472;6.466;2023-02-18T09:11:54;9.80;99.90
21149;DHT22;10732;51.472;6.466;2023-02-18T09:14:20;9.80;99.90
21149;DHT22;10732;51.472;6.466;2023-02-18T09:16:45;9.70;99.90
21149;DHT22;10732;51.472;6.466;2023-02-18T09:19:11;9.80;99.90
21149;DHT22;10732;51.472;6.466;2023-02-18T09:21:36;9.80;99.90
21149;DHT22;10732;51.472;6.466;2023-02-18T09:24:02;9.90;99.90
21149;DHT22;10732;51.472;6.466;2023-02-18T09:26:28;9.90;99.90
21149;DHT22;10732;51.472;6.466;2023-02-18T09:28:55;9.80;99.90
21149;DHT22;10732;51.472;6.466;2023-02-18T09:31:23;9.90;99.90
21149;DHT22;10732;51.472;6.466;2023-02-18T09:33:55;10.00;99.90
21149;DHT22;10732;51.472;6.466;2023-02-18T09:36:24;10.10;99.90
21149;DHT22;10732;51.472;6.466;2023-02-18T09:38:50;10.20;99.90
21149;DHT22;10732;51.472;6.466;2023-02-18T09:41:37;10.30;99.90
21149;DHT22;10732;51.472;6.466;2023-02-18T09:46:59;10.40;99.90
21149;DHT22;10732;51.472;6.466;2023-02-18T09:49:29;10.30;99.90
21149;DHT22;10732;51.472;6.466;2023-02-18T09:52:11;10.30;99.90
21149;DHT22;10732;51.472;6.466;2023-02-18T09:54:37;10.40;99.90
21149;DHT22;10732;51.472;6.466;2023-02-18T09:57:03;10.30;99.90
21149;DHT22;10732;51.472;6.466;2023-02-18T09:59:30;10.30;99.90
21149;DHT22;10732;51.472;6.466;2023-02-18T10:01:56;10.40;99.90
21149;DHT22;10732;51.472;6.466;2023-02-18T10:04:28;10.40;99.90
21149;DHT22;10732;51.472;6.466;2023-02-18T10:06:57;10.40;99.90
21149;DHT22;10732;51.472;6.466;2023-02-18T10:09:27;10.40;99.90
21149;DHT22;10732;51.472;6.466;2023-02-18T10:12:02;10.30;99.90
21149;DHT22;10732;51.472;6.466;2023-02-18T10:14:29;10.20;99.90
21149;DHT22;10732;51.472;6.466;2023-02-18T10:16:56;9.90;99.90
21149;DHT22;10732;51.472;6.466;2023-02-18T10:19:29;9.90;99.90
21149;DHT22;10732;51.472;6.466;2023-02-18T10:21:56;9.90;99.90
21149;DHT22;10732;51.472;6.466;2023-02-18T10:24:36;9.90;99.90
21149;DHT22;10732;51.472;6.466;2023-02-18T10:27:05;9.80;99.90
21149;DHT22;10732;51.472;6.466;2023-02-18T10:29:31;9.90;99.90
21149;DHT22;10732;51.472;6.466;2023-02-18T10:32:22;9.80;99.90
21149;DHT22;10732;51.472;6.466;2023-02-18T10:38:05;9.80;99.90
21149;DHT22;10732;51.472;6.466;2023-02-18T10:43:33;9.70;99.90
21149;DHT22;10732;51.472;6.466;2023-02-18T10:46:16;9.60;99.90
21149;DHT22;10732;51.472;6.466;2023-02-18T10:49:23;9.60;99.90
21149;DHT22;10732;51.472;6.466;2023-02-18T10:51:54;9.70;99.90
21149;DHT22;10732;51.472;6.466;2023-02-18T10:54:25;9.60;99.90
21149;DHT22;10732;51.472;6.466;2023-02-18T10:56:53;9.60;99.90
21149;DHT22;10732;51.472;6.466;2023-02-18T10:59:25;9.60;99.90
21149;DHT22;10732;51.472;6.466;2023-02-18T11:01:57;9.60;99.90
21149;DHT22;10732;51.472;6.466;2023-02-18T11:04:27;9.60;99.90
21149;DHT22;10732;51.472;6.466;2023-02-18T11:07:04;9.60;99.90
21149;DHT22;10732;51.472;6.466;2023-02-18T11:09:40;9.50;99.90
21149;DHT22;10732;51.472;6.466;2023-02-18T11:12:16;9.50;99.90
21149;DHT22;10732;51.472;6.466;2023-02-18T11:14:48;9.50;99.90
21149;DHT22;10732;51.472;6.466;2023-02-18T11:17:19;9.50;99.90
21149;DHT22;10732;51.472;6.466;2023-02-18T11:20:00;9.50;99.90
21149;DHT22;10732;51.472;6.466;2023-02-18T11:22:31;9.50;99.90
21149;DHT22;10732;51.472;6.466;2023-02-18T11:25:03;9.60;99.90
21149;DHT22;10732;51.472;6.466;2023-02-18T11:30:00;9.70;99.90
21149;DHT22;10732;51.472;6.466;2023-02-18T11:32:28;9.70;99.90
21149;DHT22;10732;51.472;6.466;2023-02-18T11:34:55;9.80;99.90
21149;DHT22;10732;51.472;6.466;2023-02-18T11:37:21;9.80;99.90
21149;DHT22;10732;51.472;6.466;2023-02-18T11:39:50;9.70;99.90
21149;DHT22;10732;51.472;6.466;2023-02-18T11:42:18;9.70;99.90
21149;DHT22;10732;51.472;6.466;2023-02-18T11:49:43;9.70;99.90
21149;DHT22;10732;51.472;6.466;2023-02-18T11:52:23;9.60;99.90
21149;DHT22;10732;51.472;6.466;2023-02-18T11:57:45;9.80;99.90
21149;DHT22;10732;51.472;6.466;2023-02-18T12:00:22;9.80;99.90
21149;DHT22;10732;51.472;6.466;2023-02-18T12:02:50;9.70;99.90
21149;DHT22;10732;51.472;6.466;2023-02-18T12:08:06;9.90;99.90
21149;DHT22;10732;51.472;6.466;2023-02-18T12:10:38;9.80;99.90
21149;DHT22;10732;51.472;6.466;2023-02-18T12:13:21;9.80;99.90
21149;DHT22;10732;51.472;6.466;2023-02-18T12:24:00;9.80;99.90
21149;DHT22;10732;51.472;6.466;2023-02-18T12:37:38;10.10;99.90
21149;DHT22;10732;51.472;6.466;2023-02-18T12:46:14;10.10;99.90
21149;DHT22;10732;51.472;6.466;2023-02-18T12:51:24;10.10;99.90
21149;DHT22;10732;51.472;6.466;2023-02-18T12:54:15;10.00;99.90
21149;DHT22;10732;51.472;6.466;2023-02-18T13:05:26;10.00;99.90
21149;DHT22;10732;51.472;6.466;2023-02-18T13:11:03;10.00;99.90
21149;DHT22;10732;51.472;6.466;2023-02-18T13:13:38;9.90;99.90
21149;DHT22;10732;51.472;6.466;2023-02-18T13:16:09;9.90;99.90
21149;DHT22;10732;51.472;6.466;2023-02-18T13:19:03;10.00;99.90
21149;DHT22;10732;51.472;6.466;2023-02-18T13:21:32;10.10;99.90
21149;DHT22;10732;51.472;6.466;2023-02-18T13:24:02;10.10;99.90
21149;DHT22;10732;51.472;6.466;2023-02-18T13:26:31;10.20;99.90
21149;DHT22;10732;51.472;6.466;2023-02-18T13:34:23;10.30;99.90
21149;DHT22;10732;51.472;6.466;2023-02-18T13:39:30;10.50;99.90
21149;DHT22;10732;51.472;6.466;2023-02-18T13:47:42;10.50;99.90
21149;DHT22;10732;51.472;6.466;2023-02-18T13:56:30;10.40;99.90
21149;DHT22;10732;51.472;6.466;2023-02-18T13:58:55;10.40;99.90
21149;DHT22;10732;51.472;6.466;2023-02-18T14:01:40;10.50;99.90
21149;DHT22;10732;51.472;6.466;2023-02-18T14:09:48;10.60;99.90
21149;DHT22;10732;51.472;6.466;2023-02-18T14:12:25;10.60;99.90
21149;DHT22;10732;51.472;6.466;2023-02-18T14:14:52;10.60;99.90
21149;DHT22;10732;51.472;6.466;2023-02-18T14:27:34;10.70;99.90
21149;DHT22;10732;51.472;6.466;2023-02-18T14:32:40;10.70;99.90
21149;DHT22;10732;51.472;6.466;2023-02-18T14:35:26;10.70;99.90
21149;DHT22;10732;51.472;6.466;2023-02-18T14:43:32;10.70;99.90
21149;DHT22;10732;51.472;6.466;2023-02-18T14:46:12;10.70;99.90
21149;DHT22;10732;51.472;6.466;2023-02-18T14:48:49;10.60;99.90
21149;DHT22;10732;51.472;6.466;2023-02-18T14:51:23;10.60;99.90
21149;DHT22;10732;51.472;6.466;2023-02-18T14:53:49;10.60;99.90
21149;DHT22;10732;51.472;6.466;2023-02-18T14:56:18;10.60;99.90
21149;DHT22;10732;51.472;6.466;2023-02-18T14:58:52;10.60;99.90
21149;DHT22;10732;51.472;6.466;2023-02-18T15:01:29;10.60;99.90
21149;DHT22;10732;51.472;6.466;2023-02-18T15:03:55;10.60;99.90
21149;DHT22;10732;51.472;6.466;2023-02-18T15:06:28;10.50;99.90
21149;DHT22;10732;51.472;6.466;2023-02-18T15:08:58;10.50;99.90
21149;DHT22;10732;51.472;6.466;2023-02-18T15:11:38;10.50;99.90
21149;DHT22;10732;51.472;6.466;2023-02-18T15:14:20;10.60;99.90
21149;DHT22;10732;51.472;6.466;2023-02-18T15:16:48;10.50;99.90
21149;DHT22;10732;51.472;6.466;2023-02-18T15:19:18;10.50;99.90
21149;DHT22;10732;51.472;6.466;2023-02-18T15:21:47;10.60;99.90
21149;DHT22;10732;51.472;6.466;2023-02-18T15:24:22;10.60;99.90
21149;DHT22;10732;51.472;6.466;2023-02-18T15:26:48;10.60;99.90
21149;DHT22;10732;51.472;6.466;2023-02-18T15:29:24;10.60;99.90
21149;DHT22;10732;51.472;6.466;2023-02-18T15:31:50;10.70;99.90
21149;DHT22;10732;51.472;6.466;2023-02-18T15:36:54;10.70;99.90
21149;DHT22;10732;51.472;6.466;2023-02-18T15:39:21;10.60;99.90
21149;DHT22;10732;51.472;6.466;2023-02-18T15:41:54;10.70;99.90
21149;DHT22;10732;51.472;6.466;2023-02-18T15:44:23;10.70;99.90
21149;DHT22;10732;51.472;6.466;2023-02-18T15:46:50;10.60;99.90
21149;DHT22;10732;51.472;6.466;2023-02-18T15:49:19;10.60;99.90
21149;DHT22;10732;51.472;6.466;2023-02-18T15:51:46;10.60;99.90
21149;DHT22;10732;51.472;6.466;2023-02-18T15:54:20;10.60;99.90
21149;DHT22;10732;51.472;6.466;2023-02-18T15:56:51;10.70;99.90
21149;DHT22;10732;51.472;6.466;2023-02-18T15:59:23;10.70;99.90
21149;DHT22;10732;51.472;6.466;2023-02-18T16:02:01;10.60;99.90
21149;DHT22;10732;51.472;6.466;2023-02-18T16:04:37;10.60;99.90
21149;DHT22;10732;51.472;6.466;2023-02-18T16:07:25;10.60;99.90
21149;DHT22;10732;51.472;6.466;2023-02-18T16:10:19;10.60;99.90
21149;DHT22;10732;51.472;6.466;2023-02-18T16:12:46;10.60;99.90
21149;DHT22;10732;51.472;6.466;2023-02-18T16:15:26;10.60;99.90
21149;DHT22;10732;51.472;6.466;2023-02-18T16:17:53;10.60;99.90
21149;DHT22;10732;51.472;6.466;2023-02-18T16:20:30;10.60;99.90
21149;DHT22;10732;51.472;6.466;2023-02-18T16:23:00;10.60;99.90
21149;DHT22;10732;51.472;6.466;2023-02-18T16:28:27;10.50;99.90
21149;DHT22;10732;51.472;6.466;2023-02-18T16:30:55;10.50;99.90
21149;DHT22;10732;51.472;6.466;2023-02-18T16:33:21;10.50;99.90
21149;DHT22;10732;51.472;6.466;2023-02-18T16:35:47;10.50;99.90
21149;DHT22;10732;51.472;6.466;2023-02-18T16:38:21;10.40;99.90
21149;DHT22;10732;51.472;6.466;2023-02-18T16:40:49;10.40;99.90
21149;DHT22;10732;51.472;6.466;2023-02-18T16:43:20;10.40;99.90
21149;DHT22;10732;51.472;6.466;2023-02-18T16:45:51;10.40;99.90
21149;DHT22;10732;51.472;6.466;2023-02-18T16:48:25;10.50;99.90
21149;DHT22;10732;51.472;6.466;2023-02-18T16:50:52;10.40;99.90
21149;DHT22;10732;51.472;6.466;2023-02-18T16:53:18;10.50;99.90
21149;DHT22;10732;51.472;6.466;2023-02-18T16:55:44;10.50;99.90
21149;DHT22;10732;51.472;6.466;2023-02-18T16:58:10;10.50;99.90
21149;DHT22;10732;51.472;6.466;2023-02-18T17:00:36;10.50;99.90
21149;DHT22;10732;51.472;6.466;2023-02-18T17:03:03;10.50;99.90
21149;DHT22;10732;51.472;6.466;2023-02-18T17:05:31;10.40;99.90
21149;DHT22;10732;51.472;6.466;2023-02-18T17:10:43;10.40;99.90
21149;DHT22;10732;51.472;6.466;2023-02-18T17:13:14;10.40;99.90
21149;DHT22;10732;51.472;6.466;2023-02-18T17:15:41;10.40;99.90
21149;DHT22;10732;51.472;6.466;2023-02-18T17:18:08;10.40;99.90
21149;DHT22;10732;51.472;6.466;2023-02-18T17:20:33;10.40;99.90
21149;DHT22;10732;51.472;6.466;2023-02-18T17:22:59;10.40;99.90
21149;DHT22;10732;51.472;6.466;2023-02-18T17:25:35;10.30;99.90
21149;DHT22;10732;51.472;6.466;2023-02-18T17:28:02;10.30;99.90
21149;DHT22;10732;51.472;6.466;2023-02-18T17:30:29;10.40;99.90
21149;DHT22;10732;51.472;6.466;2023-02-18T17:32:58;10.30;99.90
21149;DHT22;10732;51.472;6.466;2023-02-18T17:35:24;10.30;99.90
21149;DHT22;10732;51.472;6.466;2023-02-18T17:37:50;10.30;99.90
21149;DHT22;10732;51.472;6.466;2023-02-18T17:40:17;10.30;99.90
21149;DHT22;10732;51.472;6.466;2023-02-18T17:42:43;10.30;99.90
21149;DHT22;10732;51.472;6.466;2023-02-18T17:45:32;10.40;99.90
21149;DHT22;10732;51.472;6.466;2023-02-18T17:47:59;10.40;99.90
21149;DHT22;10732;51.472;6.466;2023-02-18T17:50:27;10.40;99.90
21149;DHT22;10732;51.472;6.466;2023-02-18T17:52:53;10.40;99.90
21149;DHT22;10732;51.472;6.466;2023-02-18T17:55:28;10.40;99.90
21149;DHT22;10732;51.472;6.466;2023-02-18T17:57:54;10.40;99.90
21149;DHT22;10732;51.472;6.466;2023-02-18T18:00:43;10.30;99.90
21149;DHT22;10732;51.472;6.466;2023-02-18T18:03:09;10.30;99.90
21149;DHT22;10732;51.472;6.466;2023-02-18T18:05:36;10.30;99.90
21149;DHT22;10732;51.472;6.466;2023-02-18T18:08:06;10.40;99.90
21149;DHT22;10732;51.472;6.466;2023-02-18T18:10:35;10.40;99.90
21149;DHT22;10732;51.472;6.466;2023-02-18T18:13:07;10.40;99.90
21149;DHT22;10732;51.472;6.466;2023-02-18T18:15:38;10.30;99.90